M.v.jiaolong Spirit — C6WZ9 — position and weather

sailwx.info

Track history (hours):
 
Tides and Currents Weather Stations Pressure Air Temp Water Temp Dewpoint Dewpoint Depression Visibility Wind Speed Wind Dir Waves Ship Positions

M.v.jiaolong Spirit

Last reported at 2018-Mar-25 09:29 UTC. Time now 2018-Apr-26 07:51 UTC.
Position S 30°15' E 031°12'.
Warning: this ship's position is 31 days out of date.

Length 271 m; draft 9.1 m.

Type: Tanker. MMSI: 309813000.

Date/timePositionNaut miles runAvg speedWind from/ knotsBaromVisibWave heightAir tempDewpointWater temp
2018-Mar-25 09:29S 30°15' E 031°12'511.1
2018-Mar-25 09:00S 30°10' E 031°13'510.7
2018-Mar-25 08:30S 30°04' E 031°14'2 3.9
2018-Mar-25 08:00S 30°03' E 031°15'2 4.8
2018-Mar-25 07:30S 30°00' E 031°15'5 9.8
2018-Mar-25 07:00S 29°55' E 031°15'5 9.8
2018-Mar-25 06:30S 29°51' E 031°13'4 7.4
2018-Mar-25 06:00S 29°48' E 031°10'1 2.8
2018-Mar-25 05:30S 29°50' E 031°10'2 3.3
2018-Mar-25 05:00S 29°49' E 031°12'4 7.9
2018-Mar-25 04:30S 29°48' E 031°16'4 7.5
2018-Mar-25 04:00S 29°46' E 031°20'4 8.1
2018-Mar-25 03:30S 29°44' E 031°24'3 5.3
2018-Mar-25 03:00S 29°42' E 031°27'1 2.2
2018-Mar-25 02:30S 29°43' E 031°26'1 1.3
2018-Mar-25 02:00S 29°44' E 031°25'1 1.3
2018-Mar-25 01:30S 29°44' E 031°25'1 1.1
2018-Mar-25 01:00S 29°45' E 031°25'1 1.0
2018-Mar-25 00:30S 29°45' E 031°24'0 0.9
2018-Mar-24 23:59S 29°46' E 031°24'1 1.4
2018-Mar-24 23:30S 29°46' E 031°24'1 1.3
2018-Mar-24 23:00S 29°47' E 031°24'0 0.8
2018-Mar-24 22:30S 29°47' E 031°24'0 0.8
2018-Mar-24 22:00S 29°48' E 031°24'0 0.9
2018-Mar-24 21:30S 29°48' E 031°24'0 0.7
2018-Mar-24 21:00S 29°49' E 031°24'0 0.8
2018-Mar-24 20:30S 29°49' E 031°23'0 0.7
2018-Mar-24 20:00S 29°49' E 031°23'0 0.6
2018-Mar-24 19:30S 29°50' E 031°23'0 0.6
2018-Mar-24 19:00S 29°50' E 031°23'0 0.7
2018-Mar-24 18:30S 29°50' E 031°23'0 0.8
2018-Mar-24 18:00S 29°51' E 031°23'0 0.8
2018-Mar-24 17:30S 29°51' E 031°23'1 1.1
2018-Mar-24 17:00S 29°51' E 031°22'1 1.5
2018-Mar-24 16:30S 29°52' E 031°22'4 7.6
2018-Mar-24 16:00S 29°48' E 031°21'4 8.3
2018-Mar-24 15:30S 29°44' E 031°21'4 8.1
2018-Mar-24 15:00S 29°40' E 031°20'4 8.0
2018-Mar-24 14:30S 29°36' E 031°19'0 0.8
2018-Mar-24 14:00S 29°36' E 031°18'1 1.3
2018-Mar-24 13:30S 29°37' E 031°19'1 1.3
2018-Mar-24 13:00S 29°37' E 031°19'1 1.3
2018-Mar-24 12:30S 29°38' E 031°19'1 1.4
2018-Mar-24 12:00S 29°38' E 031°19'1 1.4
2018-Mar-24 11:30S 29°39' E 031°19'1 1.5
2018-Mar-24 11:00S 29°40' E 031°19'1 1.5
2018-Mar-24 10:30S 29°41' E 031°19'1 1.5
2018-Mar-24 10:00S 29°41' E 031°20'1 1.7
2018-Mar-24 09:30S 29°42' E 031°20'1 2.0
2018-Mar-24 09:00S 29°43' E 031°20'1 3.0
2018-Mar-24 08:30S 29°45' E 031°19'1 1.4
2018-Mar-24 08:00S 29°45' E 031°18'1 1.6
2018-Mar-24 07:30S 29°46' E 031°18'1 1.6
2018-Mar-24 07:00S 29°47' E 031°17'1 2.4
2018-Mar-24 06:30S 29°48' E 031°17'2 4.7
2018-Mar-24 06:00S 29°48' E 031°14'4 7.4
2018-Mar-24 05:30S 29°48' E 031°10'2 3.2
2018-Mar-24 05:00S 29°50' E 031°10'1 2.6
2018-Mar-24 04:30S 29°51' E 031°10'2 4.8
2018-Mar-24 04:00S 29°50' E 031°13'2 4.6
2018-Mar-24 03:30S 29°51' E 031°15'611.2
2018-Mar-24 03:00S 29°51' E 031°22'3 5.0
2018-Mar-24 02:30S 29°51' E 031°25'1 1.1
2018-Mar-24 02:00S 29°52' E 031°25'1 1.3
2018-Mar-24 01:30S 29°52' E 031°25'1 1.6
2018-Mar-24 01:00S 29°53' E 031°26'1 2.5
2018-Mar-24 00:30S 29°53' E 031°27'3 6.5
2018-Mar-24 00:00S 29°54' E 031°31'612.6
2018-Mar-23 23:31S 29°56' E 031°38'2 4.7
2018-Mar-23 23:00S 29°56' E 031°41'2 2.8
2018-Mar-23 22:27S 29°56' E 031°42'1 2.5
2018-Mar-23 22:00S 29°55' E 031°44'1 2.3
2018-Mar-23 21:30S 29°55' E 031°45'1 2.2
2018-Mar-23 21:00S 29°55' E 031°46'1 2.3
2018-Mar-23 20:30S 29°55' E 031°48'1 2.2
2018-Mar-23 20:00S 29°55' E 031°49'1 1.6
2018-Mar-23 19:30S 29°54' E 031°50'1 2.4
2018-Mar-23 19:00S 29°54' E 031°48'3 5.2
2018-Mar-23 18:30S 29°54' E 031°46'3 5.4
2018-Mar-23 18:01S 29°53' E 031°42'3 5.9
2018-Mar-23 17:30S 29°53' E 031°39'3 5.2
2018-Mar-23 17:00S 29°52' E 031°36'3 5.5
2018-Mar-23 16:30S 29°51' E 031°33'3 6.3
2018-Mar-23 16:01S 29°50' E 031°30'2 3.2
2018-Mar-23 15:30S 29°50' E 031°28'3 6.9
2018-Mar-23 15:00S 29°49' E 031°24'1 2.2
2018-Mar-23 14:30S 29°49' E 031°23'3 6.3
2018-Mar-23 14:01S 29°49' E 031°19'3 5.3
2018-Mar-23 13:30S 29°49' E 031°16'0 1.0
2018-Mar-23 13:01S 29°50' E 031°16'1 2.0
2018-Mar-23 12:30S 29°49' E 031°15'3 6.5
2018-Mar-23 12:00S 29°47' E 031°13'1 2.1
2018-Mar-23 11:30S 29°47' E 031°11'1 1.4
2018-Mar-23 11:00S 29°47' E 031°11'1 1.1
2018-Mar-23 10:30S 29°47' E 031°11'1 2.4
2018-Mar-23 10:00S 29°48' E 031°11'1 2.5
2018-Mar-23 09:30S 29°49' E 031°12'1 2.3
2018-Mar-23 09:01S 29°51' E 031°11'1 2.8
2018-Mar-23 08:30S 29°52' E 031°12'2 4.0
2018-Mar-23 08:00S 29°54' E 031°11'3 6.7
2018-Mar-23 07:30S 29°56' E 031°08'3 6.9
2018-Mar-23 07:00S 29°58' E 031°05'3 6.0
2018-Mar-23 06:30S 29°60' E 031°02'3 5.2
2018-Mar-23 06:00S 30°01' E 030°59'1 2.1
2018-Mar-23 05:30S 30°00' E 030°58'0 0.2
2018-Mar-23 04:47S 30°00' E 030°58'0 0.1
2018-Mar-23 04:26S 30°00' E 030°58'0 0.1
2018-Mar-23 03:59S 30°00' E 030°58'0 0.0
2018-Mar-23 03:26S 30°00' E 030°58'0 0.1
2018-Mar-23 02:59S 30°00' E 030°58'0 0.0
2018-Mar-23 02:29S 30°00' E 030°58'0 0.1
2018-Mar-23 01:59S 30°00' E 030°58'0 0.1
2018-Mar-23 01:29S 30°00' E 030°58'0 0.0
2018-Mar-23 00:59S 30°00' E 030°58'0 0.1
2018-Mar-23 00:29S 30°00' E 030°58'0 0.0
2018-Mar-22 23:56S 30°00' E 030°58'0 0.0
2018-Mar-22 23:29S 30°00' E 030°58'0 0.0
2018-Mar-22 22:50S 30°00' E 030°58'0 0.0
2018-Mar-22 22:20S 30°00' E 030°58'0 0.1
2018-Mar-22 21:47S 30°00' E 030°58'0 0.0
2018-Mar-22 21:29S 30°00' E 030°58'0 0.0
2018-Mar-22 20:56S 30°00' E 030°58'0 0.0
2018-Mar-22 19:56S 30°00' E 030°58'0 0.0
2018-Mar-22 19:20S 30°00' E 030°58'0 0.1
2018-Mar-22 18:56S 30°00' E 030°58'0 0.1
2018-Mar-22 18:29S 30°00' E 030°58'0 0.0
2018-Mar-22 17:59S 30°00' E 030°58'0 0.0
2018-Mar-22 17:29S 30°00' E 030°58'0 0.0
2018-Mar-22 16:59S 30°00' E 030°58'0 0.0
2018-Mar-22 16:29S 30°00' E 030°58'0 0.0
2018-Mar-22 15:59S 30°00' E 030°58'0 0.0
2018-Mar-22 15:26S 30°00' E 030°58'0 0.0
2018-Mar-22 14:53S 30°00' E 030°58'0 0.0
2018-Mar-22 14:23S 30°00' E 030°58'0 0.0
2018-Mar-22 13:50S 30°00' E 030°58'0 0.0
2018-Mar-22 13:26S 30°00' E 030°58'0 0.0
2018-Mar-22 12:59S 30°00' E 030°58'0 0.0
2018-Mar-22 12:23S 30°00' E 030°58'0 0.0
2018-Mar-22 11:56S 30°00' E 030°58'0 0.0
2018-Mar-22 11:20S 30°00' E 030°58'0 0.0
2018-Mar-22 10:44S 30°00' E 030°58'0 0.0
2018-Mar-22 10:17S 30°00' E 030°58'0 0.0
2018-Mar-22 09:53S 30°00' E 030°58'0 0.0
2018-Mar-22 08:26S 30°00' E 030°58'0 0.0
2018-Mar-22 06:50S 30°00' E 030°58'0 0.0
2018-Mar-22 06:20S 30°00' E 030°58'0 0.0
2018-Mar-22 05:59S 30°00' E 030°58'0 0.1
2018-Mar-22 05:29S 30°00' E 030°58'0 0.1
2018-Mar-22 04:56S 30°00' E 030°58'0 0.0
2018-Mar-22 04:23S 30°00' E 030°58'0 0.1
2018-Mar-22 03:59S 30°00' E 030°58'0 0.0
2018-Mar-22 03:29S 30°00' E 030°58'0 0.0
2018-Mar-22 02:59S 30°00' E 030°58'0 0.1
2018-Mar-22 01:43S 30°00' E 030°58'0 0.0
2018-Mar-22 01:25S 30°00' E 030°58'0 0.0
2018-Mar-22 00:50S 30°00' E 030°58'0 0.0
2018-Mar-22 00:29S 30°00' E 030°58'0 0.1
2018-Mar-21 23:56S 30°00' E 030°58'0 0.0
2018-Mar-21 23:25S 30°00' E 030°58'0 0.0
2018-Mar-21 22:58S 30°00' E 030°58'0 0.0
2018-Mar-21 22:29S 30°00' E 030°58'0 0.0
2018-Mar-21 21:55S 30°00' E 030°58'0 0.1
2018-Mar-21 21:23S 30°00' E 030°58'0 0.1
2018-Mar-21 20:52S 30°00' E 030°58'0 0.0
2018-Mar-21 20:28S 30°00' E 030°58'0 0.0
2018-Mar-21 19:49S 30°00' E 030°58'0 0.0
2018-Mar-21 19:25S 30°00' E 030°58'0 0.0
2018-Mar-21 18:55S 30°00' E 030°58'0 0.0
2018-Mar-21 18:13S 30°00' E 030°58'0 0.0
2018-Mar-21 17:58S 30°00' E 030°58'0 0.0
2018-Mar-21 17:28S 30°00' E 030°58'0 0.0
2018-Mar-21 16:58S 30°00' E 030°58'0 0.0
2018-Mar-21 16:28S 30°00' E 030°58'0 0.0
2018-Mar-21 15:58S 30°00' E 030°58'0 0.0
2018-Mar-21 15:28S 30°00' E 030°58'0 0.0
2018-Mar-21 14:55S 30°00' E 030°58'0 0.0
2018-Mar-21 13:07S 30°00' E 030°58'0 0.0
2018-Mar-21 12:49S 30°00' E 030°58'0 0.0
2018-Mar-21 12:13S 30°00' E 030°58'0 0.0
2018-Mar-21 11:55S 30°00' E 030°58'0 0.0
2018-Mar-21 11:28S 30°00' E 030°58'0 0.0
2018-Mar-21 10:58S 30°00' E 030°58'0 0.0
2018-Mar-21 10:25S 30°00' E 030°58'0 0.1
2018-Mar-21 09:55S 30°00' E 030°58'0 0.1
2018-Mar-21 09:22S 30°00' E 030°58'0 0.2
2018-Mar-21 08:55S 30°00' E 030°58'0 0.2
2018-Mar-21 08:25S 30°01' E 030°58'0 0.1
2018-Mar-21 07:58S 30°01' E 030°58'0 0.1
2018-Mar-21 07:25S 30°01' E 030°58'0 0.0
2018-Mar-21 07:01S 30°01' E 030°58'0 0.5
2018-Mar-21 06:29S 30°01' E 030°58'1 1.8
2018-Mar-21 06:00S 30°01' E 030°59'1 2.6
2018-Mar-21 05:31S 30°00' E 031°00'0 0.4
2018-Mar-21 04:59S 30°01' E 031°01'0 0.3
2018-Mar-21 04:29S 30°01' E 031°01'1 1.5
2018-Mar-21 04:00S 30°01' E 031°01'3 5.0
2018-Mar-21 03:30S 30°04' E 031°02'3 7.0
2018-Mar-21 03:00S 30°07' E 031°02'5 9.1
2018-Mar-21 02:31S 30°12' E 031°00'5 9.5
2018-Mar-21 02:01S 30°16' E 030°59'6 9.1
2018-Mar-21 01:23S 30°22' E 030°58'4 9.5
2018-Mar-21 01:00S 30°25' E 030°57'  
Track history (hours):
 
Tides and Currents Weather Stations Pressure Air Temp Water Temp Dewpoint Dewpoint Depression Visibility Wind Speed Wind Dir Waves Ship Positions

M.v.jiaolong Spirit

Last reported at 2018-Mar-25 09:29 UTC. Time now 2018-Apr-26 07:51 UTC.
Position S 30°15' E 031°12'.
Warning: this ship's position is 31 days out of date.

Length 271 m; draft 9.1 m.

Type: Tanker. MMSI: 309813000.

Date/timePositionNaut miles runAvg speedWind from/ knotsBaromVisibWave heightAir tempDewpointWater temp
2018-Mar-25 09:29S 30°15' E 031°12'511.1
2018-Mar-25 09:00S 30°10' E 031°13'510.7
2018-Mar-25 08:30S 30°04' E 031°14'2 3.9
2018-Mar-25 08:00S 30°03' E 031°15'2 4.8
2018-Mar-25 07:30S 30°00' E 031°15'5 9.8
2018-Mar-25 07:00S 29°55' E 031°15'5 9.8
2018-Mar-25 06:30S 29°51' E 031°13'4 7.4
2018-Mar-25 06:00S 29°48' E 031°10'1 2.8
2018-Mar-25 05:30S 29°50' E 031°10'2 3.3
2018-Mar-25 05:00S 29°49' E 031°12'4 7.9
2018-Mar-25 04:30S 29°48' E 031°16'4 7.5
2018-Mar-25 04:00S 29°46' E 031°20'4 8.1
2018-Mar-25 03:30S 29°44' E 031°24'3 5.3
2018-Mar-25 03:00S 29°42' E 031°27'1 2.2
2018-Mar-25 02:30S 29°43' E 031°26'1 1.3
2018-Mar-25 02:00S 29°44' E 031°25'1 1.3
2018-Mar-25 01:30S 29°44' E 031°25'1 1.1
2018-Mar-25 01:00S 29°45' E 031°25'1 1.0
2018-Mar-25 00:30S 29°45' E 031°24'0 0.9
2018-Mar-24 23:59S 29°46' E 031°24'1 1.4
2018-Mar-24 23:30S 29°46' E 031°24'1 1.3
2018-Mar-24 23:00S 29°47' E 031°24'0 0.8
2018-Mar-24 22:30S 29°47' E 031°24'0 0.8
2018-Mar-24 22:00S 29°48' E 031°24'0 0.9
2018-Mar-24 21:30S 29°48' E 031°24'0 0.7
2018-Mar-24 21:00S 29°49' E 031°24'0 0.8
2018-Mar-24 20:30S 29°49' E 031°23'0 0.7
2018-Mar-24 20:00S 29°49' E 031°23'0 0.6
2018-Mar-24 19:30S 29°50' E 031°23'0 0.6
2018-Mar-24 19:00S 29°50' E 031°23'0 0.7
2018-Mar-24 18:30S 29°50' E 031°23'0 0.8
2018-Mar-24 18:00S 29°51' E 031°23'0 0.8
2018-Mar-24 17:30S 29°51' E 031°23'1 1.1
2018-Mar-24 17:00S 29°51' E 031°22'1 1.5
2018-Mar-24 16:30S 29°52' E 031°22'4 7.6
2018-Mar-24 16:00S 29°48' E 031°21'4 8.3
2018-Mar-24 15:30S 29°44' E 031°21'4 8.1
2018-Mar-24 15:00S 29°40' E 031°20'4 8.0
2018-Mar-24 14:30S 29°36' E 031°19'0 0.8
2018-Mar-24 14:00S 29°36' E 031°18'1 1.3
2018-Mar-24 13:30S 29°37' E 031°19'1 1.3
2018-Mar-24 13:00S 29°37' E 031°19'1 1.3
2018-Mar-24 12:30S 29°38' E 031°19'1 1.4
2018-Mar-24 12:00S 29°38' E 031°19'1 1.4
2018-Mar-24 11:30S 29°39' E 031°19'1 1.5
2018-Mar-24 11:00S 29°40' E 031°19'1 1.5
2018-Mar-24 10:30S 29°41' E 031°19'1 1.5
2018-Mar-24 10:00S 29°41' E 031°20'1 1.7
2018-Mar-24 09:30S 29°42' E 031°20'1 2.0
2018-Mar-24 09:00S 29°43' E 031°20'1 3.0
2018-Mar-24 08:30S 29°45' E 031°19'1 1.4
2018-Mar-24 08:00S 29°45' E 031°18'1 1.6
2018-Mar-24 07:30S 29°46' E 031°18'1 1.6
2018-Mar-24 07:00S 29°47' E 031°17'1 2.4
2018-Mar-24 06:30S 29°48' E 031°17'2 4.7
2018-Mar-24 06:00S 29°48' E 031°14'4 7.4
2018-Mar-24 05:30S 29°48' E 031°10'2 3.2
2018-Mar-24 05:00S 29°50' E 031°10'1 2.6
2018-Mar-24 04:30S 29°51' E 031°10'2 4.8
2018-Mar-24 04:00S 29°50' E 031°13'2 4.6
2018-Mar-24 03:30S 29°51' E 031°15'611.2
2018-Mar-24 03:00S 29°51' E 031°22'3 5.0
2018-Mar-24 02:30S 29°51' E 031°25'1 1.1
2018-Mar-24 02:00S 29°52' E 031°25'1 1.3
2018-Mar-24 01:30S 29°52' E 031°25'1 1.6
2018-Mar-24 01:00S 29°53' E 031°26'1 2.5
2018-Mar-24 00:30S 29°53' E 031°27'3 6.5
2018-Mar-24 00:00S 29°54' E 031°31'612.6
2018-Mar-23 23:31S 29°56' E 031°38'2 4.7
2018-Mar-23 23:00S 29°56' E 031°41'2 2.8
2018-Mar-23 22:27S 29°56' E 031°42'1 2.5
2018-Mar-23 22:00S 29°55' E 031°44'1 2.3
2018-Mar-23 21:30S 29°55' E 031°45'1 2.2
2018-Mar-23 21:00S 29°55' E 031°46'1 2.3
2018-Mar-23 20:30S 29°55' E 031°48'1 2.2
2018-Mar-23 20:00S 29°55' E 031°49'1 1.6
2018-Mar-23 19:30S 29°54' E 031°50'1 2.4
2018-Mar-23 19:00S 29°54' E 031°48'3 5.2
2018-Mar-23 18:30S 29°54' E 031°46'3 5.4
2018-Mar-23 18:01S 29°53' E 031°42'3 5.9
2018-Mar-23 17:30S 29°53' E 031°39'3 5.2
2018-Mar-23 17:00S 29°52' E 031°36'3 5.5
2018-Mar-23 16:30S 29°51' E 031°33'3 6.3
2018-Mar-23 16:01S 29°50' E 031°30'2 3.2
2018-Mar-23 15:30S 29°50' E 031°28'3 6.9
2018-Mar-23 15:00S 29°49' E 031°24'1 2.2
2018-Mar-23 14:30S 29°49' E 031°23'3 6.3
2018-Mar-23 14:01S 29°49' E 031°19'3 5.3
2018-Mar-23 13:30S 29°49' E 031°16'0 1.0
2018-Mar-23 13:01S 29°50' E 031°16'1 2.0
2018-Mar-23 12:30S 29°49' E 031°15'3 6.5
2018-Mar-23 12:00S 29°47' E 031°13'1 2.1
2018-Mar-23 11:30S 29°47' E 031°11'1 1.4
2018-Mar-23 11:00S 29°47' E 031°11'1 1.1
2018-Mar-23 10:30S 29°47' E 031°11'1 2.4
2018-Mar-23 10:00S 29°48' E 031°11'1 2.5
2018-Mar-23 09:30S 29°49' E 031°12'1 2.3
2018-Mar-23 09:01S 29°51' E 031°11'1 2.8
2018-Mar-23 08:30S 29°52' E 031°12'2 4.0
2018-Mar-23 08:00S 29°54' E 031°11'3 6.7
2018-Mar-23 07:30S 29°56' E 031°08'3 6.9
2018-Mar-23 07:00S 29°58' E 031°05'3 6.0
2018-Mar-23 06:30S 29°60' E 031°02'3 5.2
2018-Mar-23 06:00S 30°01' E 030°59'1 2.1
2018-Mar-23 05:30S 30°00' E 030°58'0 0.2
2018-Mar-23 04:47S 30°00' E 030°58'0 0.1
2018-Mar-23 04:26S 30°00' E 030°58'0 0.1
2018-Mar-23 03:59S 30°00' E 030°58'0 0.0
2018-Mar-23 03:26S 30°00' E 030°58'0 0.1
2018-Mar-23 02:59S 30°00' E 030°58'0 0.0
2018-Mar-23 02:29S 30°00' E 030°58'0 0.1
2018-Mar-23 01:59S 30°00' E 030°58'0 0.1
2018-Mar-23 01:29S 30°00' E 030°58'0 0.0
2018-Mar-23 00:59S 30°00' E 030°58'0 0.1
2018-Mar-23 00:29S 30°00' E 030°58'0 0.0
2018-Mar-22 23:56S 30°00' E 030°58'0 0.0
2018-Mar-22 23:29S 30°00' E 030°58'0 0.0
2018-Mar-22 22:50S 30°00' E 030°58'0 0.0
2018-Mar-22 22:20S 30°00' E 030°58'0 0.1
2018-Mar-22 21:47S 30°00' E 030°58'0 0.0
2018-Mar-22 21:29S 30°00' E 030°58'0 0.0
2018-Mar-22 20:56S 30°00' E 030°58'0 0.0
2018-Mar-22 19:56S 30°00' E 030°58'0 0.0
2018-Mar-22 19:20S 30°00' E 030°58'0 0.1
2018-Mar-22 18:56S 30°00' E 030°58'0 0.1
2018-Mar-22 18:29S 30°00' E 030°58'0 0.0
2018-Mar-22 17:59S 30°00' E 030°58'0 0.0
2018-Mar-22 17:29S 30°00' E 030°58'0 0.0
2018-Mar-22 16:59S 30°00' E 030°58'0 0.0
2018-Mar-22 16:29S 30°00' E 030°58'0 0.0
2018-Mar-22 15:59S 30°00' E 030°58'0 0.0
2018-Mar-22 15:26S 30°00' E 030°58'0 0.0
2018-Mar-22 14:53S 30°00' E 030°58'0 0.0
2018-Mar-22 14:23S 30°00' E 030°58'0 0.0
2018-Mar-22 13:50S 30°00' E 030°58'0 0.0
2018-Mar-22 13:26S 30°00' E 030°58'0 0.0
2018-Mar-22 12:59S 30°00' E 030°58'0 0.0
2018-Mar-22 12:23S 30°00' E 030°58'0 0.0
2018-Mar-22 11:56S 30°00' E 030°58'0 0.0
2018-Mar-22 11:20S 30°00' E 030°58'0 0.0
2018-Mar-22 10:44S 30°00' E 030°58'0 0.0
2018-Mar-22 10:17S 30°00' E 030°58'0 0.0
2018-Mar-22 09:53S 30°00' E 030°58'0 0.0
2018-Mar-22 08:26S 30°00' E 030°58'0 0.0
2018-Mar-22 06:50S 30°00' E 030°58'0 0.0
2018-Mar-22 06:20S 30°00' E 030°58'0 0.0
2018-Mar-22 05:59S 30°00' E 030°58'0 0.1
2018-Mar-22 05:29S 30°00' E 030°58'0 0.1
2018-Mar-22 04:56S 30°00' E 030°58'0 0.0
2018-Mar-22 04:23S 30°00' E 030°58'0 0.1
2018-Mar-22 03:59S 30°00' E 030°58'0 0.0
2018-Mar-22 03:29S 30°00' E 030°58'0 0.0
2018-Mar-22 02:59S 30°00' E 030°58'0 0.1
2018-Mar-22 01:43S 30°00' E 030°58'0 0.0
2018-Mar-22 01:25S 30°00' E 030°58'0 0.0
2018-Mar-22 00:50S 30°00' E 030°58'0 0.0
2018-Mar-22 00:29S 30°00' E 030°58'0 0.1
2018-Mar-21 23:56S 30°00' E 030°58'0 0.0
2018-Mar-21 23:25S 30°00' E 030°58'0 0.0
2018-Mar-21 22:58S 30°00' E 030°58'0 0.0
2018-Mar-21 22:29S 30°00' E 030°58'0 0.0
2018-Mar-21 21:55S 30°00' E 030°58'0 0.1
2018-Mar-21 21:23S 30°00' E 030°58'0 0.1
2018-Mar-21 20:52S 30°00' E 030°58'0 0.0
2018-Mar-21 20:28S 30°00' E 030°58'0 0.0
2018-Mar-21 19:49S 30°00' E 030°58'0 0.0
2018-Mar-21 19:25S 30°00' E 030°58'0 0.0
2018-Mar-21 18:55S 30°00' E 030°58'0 0.0
2018-Mar-21 18:13S 30°00' E 030°58'0 0.0
2018-Mar-21 17:58S 30°00' E 030°58'0 0.0
2018-Mar-21 17:28S 30°00' E 030°58'0 0.0
2018-Mar-21 16:58S 30°00' E 030°58'0 0.0
2018-Mar-21 16:28S 30°00' E 030°58'0 0.0
2018-Mar-21 15:58S 30°00' E 030°58'0 0.0
2018-Mar-21 15:28S 30°00' E 030°58'0 0.0
2018-Mar-21 14:55S 30°00' E 030°58'0 0.0
2018-Mar-21 13:07S 30°00' E 030°58'0 0.0
2018-Mar-21 12:49S 30°00' E 030°58'0 0.0
2018-Mar-21 12:13S 30°00' E 030°58'0 0.0
2018-Mar-21 11:55S 30°00' E 030°58'0 0.0
2018-Mar-21 11:28S 30°00' E 030°58'0 0.0
2018-Mar-21 10:58S 30°00' E 030°58'0 0.0
2018-Mar-21 10:25S 30°00' E 030°58'0 0.1
2018-Mar-21 09:55S 30°00' E 030°58'0 0.1
2018-Mar-21 09:22S 30°00' E 030°58'0 0.2
2018-Mar-21 08:55S 30°00' E 030°58'0 0.2
2018-Mar-21 08:25S 30°01' E 030°58'0 0.1
2018-Mar-21 07:58S 30°01' E 030°58'0 0.1
2018-Mar-21 07:25S 30°01' E 030°58'0 0.0
2018-Mar-21 07:01S 30°01' E 030°58'0 0.5
2018-Mar-21 06:29S 30°01' E 030°58'1 1.8
2018-Mar-21 06:00S 30°01' E 030°59'1 2.6
2018-Mar-21 05:31S 30°00' E 031°00'0 0.4
2018-Mar-21 04:59S 30°01' E 031°01'0 0.3
2018-Mar-21 04:29S 30°01' E 031°01'1 1.5
2018-Mar-21 04:00S 30°01' E 031°01'3 5.0
2018-Mar-21 03:30S 30°04' E 031°02'3 7.0
2018-Mar-21 03:00S 30°07' E 031°02'5 9.1
2018-Mar-21 02:31S 30°12' E 031°00'5 9.5
2018-Mar-21 02:01S 30°16' E 030°59'6 9.1
2018-Mar-21 01:23S 30°22' E 030°58'4 9.5
2018-Mar-21 01:00S 30°25' E 030°57'  

Dump ship's entire track history